sensor_id;sensor_type;location;lat;lon;timestamp;pressure;altitude;pressure_sealevel;temperature;humidity
706;BME280;21234;48.690;9.016;2022-10-29T00:02:24;96879.47;;;14.35;83.52
706;BME280;21234;48.690;9.016;2022-10-29T00:04:50;96882.53;;;14.39;82.79
706;BME280;21234;48.690;9.016;2022-10-29T00:07:17;96870.50;;;14.40;82.65
706;BME280;21234;48.690;9.016;2022-10-29T00:09:44;96880.44;;;14.46;82.53
706;BME280;21234;48.690;9.016;2022-10-29T00:12:10;96869.19;;;14.42;82.90
706;BME280;21234;48.690;9.016;2022-10-29T00:14:37;96866.38;;;14.37;82.82
706;BME280;21234;48.690;9.016;2022-10-29T00:17:05;96868.28;;;14.37;82.96
706;BME280;21234;48.690;9.016;2022-10-29T00:19:32;96869.28;;;14.26;83.04
706;BME280;21234;48.690;9.016;2022-10-29T00:21:58;96854.47;;;14.22;83.56
706;BME280;21234;48.690;9.016;2022-10-29T00:24:25;96866.50;;;14.21;83.61
706;BME280;21234;48.690;9.016;2022-10-29T00:26:52;96869.25;;;14.21;83.98
706;BME280;21234;48.690;9.016;2022-10-29T00:29:18;96874.09;;;14.13;84.49
706;BME280;21234;48.690;9.016;2022-10-29T00:31:45;96866.84;;;14.02;85.09
706;BME280;21234;48.690;9.016;2022-10-29T00:34:13;96870.22;;;14.09;84.41
706;BME280;21234;48.690;9.016;2022-10-29T00:36:40;96858.13;;;14.05;84.30
706;BME280;21234;48.690;9.016;2022-10-29T00:39:07;96852.34;;;14.02;84.33
706;BME280;21234;48.690;9.016;2022-10-29T00:41:35;96854.06;;;14.08;85.89
706;BME280;21234;48.690;9.016;2022-10-29T00:44:23;96857.63;;;14.08;85.31
706;BME280;21234;48.690;9.016;2022-10-29T00:46:53;96858.13;;;14.05;84.54
706;BME280;21234;48.690;9.016;2022-10-29T00:49:25;96864.44;;;14.06;85.07
706;BME280;21234;48.690;9.016;2022-10-29T00:51:52;96876.09;;;13.96;84.94
706;BME280;21234;48.690;9.016;2022-10-29T00:54:19;96870.00;;;13.89;85.48
706;BME280;21234;48.690;9.016;2022-10-29T00:56:48;96863.16;;;13.87;86.55
706;BME280;21234;48.690;9.016;2022-10-29T00:59:16;96868.28;;;13.83;86.12
706;BME280;21234;48.690;9.016;2022-10-29T01:01:44;96861.44;;;13.81;87.22
706;BME280;21234;48.690;9.016;2022-10-29T01:04:12;96866.78;;;13.70;87.36
706;BME280;21234;48.690;9.016;2022-10-29T01:06:40;96858.94;;;13.79;87.09
706;BME280;21234;48.690;9.016;2022-10-29T01:09:08;96862.50;;;13.79;87.80
706;BME280;21234;48.690;9.016;2022-10-29T01:11:46;96865.75;;;13.76;87.35
706;BME280;21234;48.690;9.016;2022-10-29T01:14:22;96857.81;;;13.75;88.43
706;BME280;21234;48.690;9.016;2022-10-29T01:16:58;96853.75;;;13.77;88.55
706;BME280;21234;48.690;9.016;2022-10-29T01:19:47;96853.59;;;13.89;87.64
706;BME280;21234;48.690;9.016;2022-10-29T01:22:25;96849.03;;;13.95;87.81
706;BME280;21234;48.690;9.016;2022-10-29T01:28:02;96842.94;;;13.88;87.51
706;BME280;21234;48.690;9.016;2022-10-29T01:30:53;96858.56;;;13.92;87.75
706;BME280;21234;48.690;9.016;2022-10-29T01:33:28;96839.38;;;13.87;86.95
706;BME280;21234;48.690;9.016;2022-10-29T01:36:03;96852.47;;;13.85;86.23
706;BME280;21234;48.690;9.016;2022-10-29T01:38:35;96852.97;;;13.82;86.52
706;BME280;21234;48.690;9.016;2022-10-29T01:41:10;96854.63;;;13.83;86.20
706;BME280;21234;48.690;9.016;2022-10-29T01:43:43;96845.91;;;13.86;87.73
706;BME280;21234;48.690;9.016;2022-10-29T01:46:17;96842.41;;;13.91;88.09
706;BME280;21234;48.690;9.016;2022-10-29T01:48:47;96837.22;;;13.89;89.10
706;BME280;21234;48.690;9.016;2022-10-29T01:51:19;96832.88;;;13.93;88.41
706;BME280;21234;48.690;9.016;2022-10-29T01:53:48;96832.19;;;13.81;87.09
706;BME280;21234;48.690;9.016;2022-10-29T01:56:15;96827.19;;;13.73;87.68
706;BME280;21234;48.690;9.016;2022-10-29T01:58:45;96830.69;;;13.68;88.90
706;BME280;21234;48.690;9.016;2022-10-29T02:01:24;96824.09;;;13.64;88.63
706;BME280;21234;48.690;9.016;2022-10-29T02:03:57;96824.38;;;13.68;88.69
706;BME280;21234;48.690;9.016;2022-10-29T02:06:34;96822.72;;;13.62;88.68
706;BME280;21234;48.690;9.016;2022-10-29T02:09:07;96826.00;;;13.64;89.61
706;BME280;21234;48.690;9.016;2022-10-29T02:11:43;96821.09;;;13.66;90.65
706;BME280;21234;48.690;9.016;2022-10-29T02:14:16;96812.34;;;13.64;90.61
706;BME280;21234;48.690;9.016;2022-10-29T02:16:46;96806.06;;;13.63;90.83
706;BME280;21234;48.690;9.016;2022-10-29T02:19:13;96811.81;;;13.67;90.82
706;BME280;21234;48.690;9.016;2022-10-29T02:21:39;96800.94;;;13.72;89.69
706;BME280;21234;48.690;9.016;2022-10-29T02:24:08;96793.25;;;13.69;90.91
706;BME280;21234;48.690;9.016;2022-10-29T02:26:35;96798.41;;;13.65;90.93
706;BME280;21234;48.690;9.016;2022-10-29T02:29:02;96800.59;;;13.63;91.43
706;BME280;21234;48.690;9.016;2022-10-29T02:31:29;96802.13;;;13.54;91.33
706;BME280;21234;48.690;9.016;2022-10-29T02:33:57;96804.59;;;13.56;92.96
706;BME280;21234;48.690;9.016;2022-10-29T02:36:23;96798.63;;;13.59;92.35
706;BME280;21234;48.690;9.016;2022-10-29T02:38:50;96798.13;;;13.62;91.67
706;BME280;21234;48.690;9.016;2022-10-29T02:41:17;96802.75;;;13.61;91.99
706;BME280;21234;48.690;9.016;2022-10-29T02:43:43;96806.31;;;13.62;92.39
706;BME280;21234;48.690;9.016;2022-10-29T02:46:12;96799.53;;;13.64;90.94
706;BME280;21234;48.690;9.016;2022-10-29T02:48:39;96788.59;;;13.64;90.54
706;BME280;21234;48.690;9.016;2022-10-29T02:51:07;96790.75;;;13.62;90.15
706;BME280;21234;48.690;9.016;2022-10-29T02:53:34;96782.81;;;13.61;90.73
706;BME280;21234;48.690;9.016;2022-10-29T02:56:01;96785.28;;;13.62;90.95
706;BME280;21234;48.690;9.016;2022-10-29T02:58:27;96786.63;;;13.60;91.35
706;BME280;21234;48.690;9.016;2022-10-29T03:00:54;96776.53;;;13.60;92.39
706;BME280;21234;48.690;9.016;2022-10-29T03:03:21;96788.03;;;13.62;91.87
706;BME280;21234;48.690;9.016;2022-10-29T03:05:48;96776.53;;;13.60;91.32
706;BME280;21234;48.690;9.016;2022-10-29T03:08:17;96787.19;;;13.62;91.49
706;BME280;21234;48.690;9.016;2022-10-29T03:10:43;96785.53;;;13.61;90.57
706;BME280;21234;48.690;9.016;2022-10-29T03:13:10;96785.03;;;13.64;90.50
706;BME280;21234;48.690;9.016;2022-10-29T03:15:37;96788.84;;;13.63;91.42
706;BME280;21234;48.690;9.016;2022-10-29T03:18:04;96788.03;;;13.62;91.53
706;BME280;21234;48.690;9.016;2022-10-29T03:20:31;96792.59;;;13.57;91.58
706;BME280;21234;48.690;9.016;2022-10-29T03:22:57;96794.19;;;13.53;91.36
706;BME280;21234;48.690;9.016;2022-10-29T03:25:25;96785.09;;;13.47;91.61
706;BME280;21234;48.690;9.016;2022-10-29T03:27:52;96788.34;;;13.44;91.65
706;BME280;21234;48.690;9.016;2022-10-29T03:30:19;96780.66;;;13.41;92.30
706;BME280;21234;48.690;9.016;2022-10-29T03:32:47;96778.19;;;13.39;93.08
706;BME280;21234;48.690;9.016;2022-10-29T03:35:15;96780.66;;;13.41;92.68
706;BME280;21234;48.690;9.016;2022-10-29T03:37:42;96776.28;;;13.40;91.77
706;BME280;21234;48.690;9.016;2022-10-29T03:40:09;96778.81;;;13.47;91.84
706;BME280;21234;48.690;9.016;2022-10-29T03:42:38;96779.00;;;13.40;91.74
706;BME280;21234;48.690;9.016;2022-10-29T03:45:06;96776.09;;;13.47;92.05
706;BME280;21234;48.690;9.016;2022-10-29T03:47:33;96779.06;;;13.45;91.80
706;BME280;21234;48.690;9.016;2022-10-29T03:49:59;96780.16;;;13.44;91.53
706;BME280;21234;48.690;9.016;2022-10-29T03:52:26;96783.47;;;13.46;91.89
706;BME280;21234;48.690;9.016;2022-10-29T03:54:53;96778.06;;;13.51;91.75
706;BME280;21234;48.690;9.016;2022-10-29T03:57:20;96778.88;;;13.52;91.60
706;BME280;21234;48.690;9.016;2022-10-29T03:59:48;96774.31;;;13.57;91.32
706;BME280;21234;48.690;9.016;2022-10-29T04:02:14;96778.06;;;13.51;91.27
706;BME280;21234;48.690;9.016;2022-10-29T04:04:41;96771.25;;;13.54;91.89
706;BME280;21234;48.690;9.016;2022-10-29T04:07:08;96774.19;;;13.47;91.92
706;BME280;21234;48.690;9.016;2022-10-29T04:09:35;96775.31;;;13.51;91.57
706;BME280;21234;48.690;9.016;2022-10-29T04:12:02;96772.28;;;13.48;91.54
706;BME280;21234;48.690;9.016;2022-10-29T04:14:28;96772.28;;;13.48;90.85
706;BME280;21234;48.690;9.016;2022-10-29T04:16:57;96781.56;;;13.47;91.08
706;BME280;21234;48.690;9.016;2022-10-29T04:19:24;96778.13;;;13.56;91.96
706;BME280;21234;48.690;9.016;2022-10-29T04:21:51;96780.47;;;13.48;90.86
706;BME280;21234;48.690;9.016;2022-10-29T04:24:18;96778.50;;;13.43;92.77
706;BME280;21234;48.690;9.016;2022-10-29T04:26:44;96774.75;;;13.49;91.39
706;BME280;21234;48.690;9.016;2022-10-29T04:29:11;96774.25;;;13.52;90.71
706;BME280;21234;48.690;9.016;2022-10-29T04:31:38;96776.16;;;13.52;90.96
706;BME280;21234;48.690;9.016;2022-10-29T04:34:06;96775.56;;;13.50;90.36
706;BME280;21234;48.690;9.016;2022-10-29T04:36:33;96779.91;;;13.45;89.29
706;BME280;21234;48.690;9.016;2022-10-29T04:38:59;96785.03;;;13.42;87.75
706;BME280;21234;48.690;9.016;2022-10-29T04:41:26;96776.59;;;13.43;88.66
706;BME280;21234;48.690;9.016;2022-10-29T04:43:53;96779.91;;;13.45;88.38
706;BME280;21234;48.690;9.016;2022-10-29T04:46:19;96771.66;;;13.40;88.13
706;BME280;21234;48.690;9.016;2022-10-29T04:48:46;96780.03;;;13.34;88.90
706;BME280;21234;48.690;9.016;2022-10-29T04:51:19;96775.34;;;13.29;90.35
706;BME280;21234;48.690;9.016;2022-10-29T04:53:46;96774.81;;;13.32;89.70
706;BME280;21234;48.690;9.016;2022-10-29T04:56:13;96769.31;;;13.27;90.46
706;BME280;21234;48.690;9.016;2022-10-29T04:58:40;96769.31;;;13.27;91.25
706;BME280;21234;48.690;9.016;2022-10-29T05:01:07;96778.22;;;13.18;92.65
706;BME280;21234;48.690;9.016;2022-10-29T05:03:33;96770.28;;;13.16;92.69
706;BME280;21234;48.690;9.016;2022-10-29T05:06:01;96772.31;;;13.09;92.81
706;BME280;21234;48.690;9.016;2022-10-29T05:08:31;96776.84;;;12.98;93.61
706;BME280;21234;48.690;9.016;2022-10-29T05:11:00;96777.53;;;12.89;93.46
706;BME280;21234;48.690;9.016;2022-10-29T05:13:27;96781.25;;;12.83;93.54
706;BME280;21234;48.690;9.016;2022-10-29T05:15:54;96775.41;;;12.74;93.79
706;BME280;21234;48.690;9.016;2022-10-29T05:18:22;96778.06;;;12.69;93.93
706;BME280;21234;48.690;9.016;2022-10-29T05:20:51;96781.13;;;12.72;93.69
706;BME280;21234;48.690;9.016;2022-10-29T05:23:19;96771.28;;;12.71;93.26
706;BME280;21234;48.690;9.016;2022-10-29T05:25:47;96775.97;;;12.76;92.18
706;BME280;21234;48.690;9.016;2022-10-29T05:28:17;96773.66;;;12.85;90.95
706;BME280;21234;48.690;9.016;2022-10-29T05:30:45;96775.81;;;12.83;91.08
706;BME280;21234;48.690;9.016;2022-10-29T05:33:14;96768.03;;;12.91;90.55
706;BME280;21234;48.690;9.016;2022-10-29T05:35:41;96770.94;;;12.85;90.89
706;BME280;21234;48.690;9.016;2022-10-29T05:38:09;96766.13;;;12.92;89.65
706;BME280;21234;48.690;9.016;2022-10-29T05:40:36;96772.00;;;12.84;89.98
706;BME280;21234;48.690;9.016;2022-10-29T05:43:04;96769.94;;;12.74;90.75
706;BME280;21234;48.690;9.016;2022-10-29T05:45:31;96770.28;;;12.77;90.56
706;BME280;21234;48.690;9.016;2022-10-29T05:47:58;96762.50;;;12.86;89.32
706;BME280;21234;48.690;9.016;2022-10-29T05:50:26;96764.16;;;12.87;89.69
706;BME280;21234;48.690;9.016;2022-10-29T05:52:54;96772.16;;;12.94;88.78
706;BME280;21234;48.690;9.016;2022-10-29T05:55:21;96766.63;;;12.89;88.18
706;BME280;21234;48.690;9.016;2022-10-29T05:57:48;96766.69;;;12.94;88.39
706;BME280;21234;48.690;9.016;2022-10-29T06:00:16;96773.97;;;12.88;88.36
706;BME280;21234;48.690;9.016;2022-10-29T06:02:43;96779.44;;;12.88;88.97
706;BME280;21234;48.690;9.016;2022-10-29T06:05:10;96778.22;;;12.79;90.38
706;BME280;21234;48.690;9.016;2022-10-29T06:07:36;96782.59;;;12.80;91.08
706;BME280;21234;48.690;9.016;2022-10-29T06:10:05;96780.19;;;12.84;91.78
706;BME280;21234;48.690;9.016;2022-10-29T06:12:33;96783.09;;;12.77;91.65
706;BME280;21234;48.690;9.016;2022-10-29T06:15:00;96785.75;;;12.72;92.16
706;BME280;21234;48.690;9.016;2022-10-29T06:17:28;96781.03;;;12.67;92.64
706;BME280;21234;48.690;9.016;2022-10-29T06:19:55;96783.75;;;12.67;92.51
706;BME280;21234;48.690;9.016;2022-10-29T06:22:21;96779.59;;;12.60;93.03
706;BME280;21234;48.690;9.016;2022-10-29T06:24:48;96788.03;;;12.58;92.66
706;BME280;21234;48.690;9.016;2022-10-29T06:27:15;96792.91;;;12.56;93.15
706;BME280;21234;48.690;9.016;2022-10-29T06:29:41;96785.22;;;12.53;94.06
706;BME280;21234;48.690;9.016;2022-10-29T06:32:08;96782.06;;;12.61;93.31
706;BME280;21234;48.690;9.016;2022-10-29T06:34:36;96784.78;;;12.61;92.91
706;BME280;21234;48.690;9.016;2022-10-29T06:37:03;96780.53;;;12.70;92.75
706;BME280;21234;48.690;9.016;2022-10-29T06:39:29;96775.41;;;12.74;93.44
706;BME280;21234;48.690;9.016;2022-10-29T06:41:56;96788.88;;;12.81;91.75
706;BME280;21234;48.690;9.016;2022-10-29T06:44:23;96780.25;;;12.89;90.91
706;BME280;21234;48.690;9.016;2022-10-29T06:46:49;96776.53;;;12.95;90.65
706;BME280;21234;48.690;9.016;2022-10-29T06:49:16;96778.78;;;13.03;89.26
706;BME280;21234;48.690;9.016;2022-10-29T06:51:44;96778.34;;;13.11;88.94
706;BME280;21234;48.690;9.016;2022-10-29T06:54:11;96782.25;;;13.15;88.99
706;BME280;21234;48.690;9.016;2022-10-29T06:56:38;96781.75;;;13.18;88.98
706;BME280;21234;48.690;9.016;2022-10-29T06:59:04;96778.03;;;13.24;88.87
706;BME280;21234;48.690;9.016;2022-10-29T07:01:31;96782.16;;;13.27;89.31
706;BME280;21234;48.690;9.016;2022-10-29T07:03:58;96783.00;;;13.32;89.29
706;BME280;21234;48.690;9.016;2022-10-29T07:06:25;96782.31;;;13.42;89.41
706;BME280;21234;48.690;9.016;2022-10-29T07:08:53;96789.28;;;13.55;89.69
706;BME280;21234;48.690;9.016;2022-10-29T07:11:19;96792.09;;;13.60;89.31
706;BME280;21234;48.690;9.016;2022-10-29T07:13:46;96788.22;;;13.56;89.79
706;BME280;21234;48.690;9.016;2022-10-29T07:16:13;96784.97;;;13.59;88.91
706;BME280;21234;48.690;9.016;2022-10-29T07:18:39;96783.97;;;13.70;88.18
706;BME280;21234;48.690;9.016;2022-10-29T07:21:06;96784.66;;;13.82;87.01
706;BME280;21234;48.690;9.016;2022-10-29T07:23:34;96793.22;;;13.91;86.21
706;BME280;21234;48.690;9.016;2022-10-29T07:26:02;96787.53;;;13.97;85.45
706;BME280;21234;48.690;9.016;2022-10-29T07:28:28;96792.53;;;14.05;85.11
706;BME280;21234;48.690;9.016;2022-10-29T07:30:58;96790.66;;;14.11;85.49
706;BME280;21234;48.690;9.016;2022-10-29T07:33:26;96788.56;;;14.18;84.61
706;BME280;21234;48.690;9.016;2022-10-29T07:35:55;96797.06;;;14.22;83.84
706;BME280;21234;48.690;9.016;2022-10-29T07:38:22;96796.56;;;14.30;83.05
706;BME280;21234;48.690;9.016;2022-10-29T07:40:49;96803.69;;;14.31;82.53
706;BME280;21234;48.690;9.016;2022-10-29T07:43:19;96794.81;;;14.45;82.33
706;BME280;21234;48.690;9.016;2022-10-29T07:45:47;96810.28;;;14.67;82.25
706;BME280;21234;48.690;9.016;2022-10-29T07:48:15;96806.19;;;14.69;81.31
706;BME280;21234;48.690;9.016;2022-10-29T07:50:41;96808.16;;;14.74;80.28
706;BME280;21234;48.690;9.016;2022-10-29T07:53:09;96799.72;;;14.81;80.59
706;BME280;21234;48.690;9.016;2022-10-29T07:55:36;96817.63;;;15.03;79.67
706;BME280;21234;48.690;9.016;2022-10-29T07:58:05;96807.44;;;15.46;77.47
706;BME280;21234;48.690;9.016;2022-10-29T08:00:34;96809.41;;;15.56;76.90
706;BME280;21234;48.690;9.016;2022-10-29T08:03:02;96821.16;;;15.51;78.76
706;BME280;21234;48.690;9.016;2022-10-29T08:05:30;96815.41;;;15.53;79.39
706;BME280;21234;48.690;9.016;2022-10-29T08:07:56;96810.69;;;15.38;81.24
706;BME280;21234;48.690;9.016;2022-10-29T08:10:24;96808.47;;;15.35;81.20
706;BME280;21234;48.690;9.016;2022-10-29T08:12:52;96809.59;;;15.39;80.73
706;BME280;21234;48.690;9.016;2022-10-29T08:15:19;96807.72;;;15.50;79.67
706;BME280;21234;48.690;9.016;2022-10-29T08:17:48;96807.78;;;15.60;80.16
706;BME280;21234;48.690;9.016;2022-10-29T08:20:15;96810.84;;;15.73;79.96
706;BME280;21234;48.690;9.016;2022-10-29T08:22:42;96812.53;;;15.85;80.35
706;BME280;21234;48.690;9.016;2022-10-29T08:25:10;96810.63;;;15.90;81.49
706;BME280;21234;48.690;9.016;2022-10-29T08:27:36;96812.25;;;15.96;81.50
706;BME280;21234;48.690;9.016;2022-10-29T08:30:04;96802.41;;;16.00;81.53
706;BME280;21234;48.690;9.016;2022-10-29T08:32:30;96800.50;;;16.06;81.12
706;BME280;21234;48.690;9.016;2022-10-29T08:34:58;96798.88;;;16.10;80.25
706;BME280;21234;48.690;9.016;2022-10-29T08:37:25;96804.66;;;16.19;78.19
706;BME280;21234;48.690;9.016;2022-10-29T08:39:52;96804.34;;;16.25;76.48
706;BME280;21234;48.690;9.016;2022-10-29T08:42:34;96800.78;;;16.35;75.27
706;BME280;21234;48.690;9.016;2022-10-29T08:45:18;96799.69;;;16.41;73.18
706;BME280;21234;48.690;9.016;2022-10-29T08:48:04;96797.78;;;16.52;72.46
706;BME280;21234;48.690;9.016;2022-10-29T08:50:41;96800.00;;;16.65;71.87
706;BME280;21234;48.690;9.016;2022-10-29T08:53:15;96793.94;;;16.68;73.55
706;BME280;21234;48.690;9.016;2022-10-29T08:55:43;96794.78;;;16.73;72.26
706;BME280;21234;48.690;9.016;2022-10-29T08:58:21;96796.38;;;16.90;71.96
706;BME280;21234;48.690;9.016;2022-10-29T09:00:53;96801.31;;;17.08;69.48
706;BME280;21234;48.690;9.016;2022-10-29T09:03:20;96794.66;;;17.24;70.45
706;BME280;21234;48.690;9.016;2022-10-29T09:05:58;96796.53;;;17.34;70.43
706;BME280;21234;48.690;9.016;2022-10-29T09:08:30;96795.41;;;17.45;70.70
706;BME280;21234;48.690;9.016;2022-10-29T09:11:06;96800.28;;;17.58;68.23
706;BME280;21234;48.690;9.016;2022-10-29T09:13:46;96801.63;;;17.71;68.33
706;BME280;21234;48.690;9.016;2022-10-29T09:16:22;96803.53;;;17.81;68.72
706;BME280;21234;48.690;9.016;2022-10-29T09:19:08;96802.97;;;17.84;68.83
706;BME280;21234;48.690;9.016;2022-10-29T09:21:45;96798.00;;;17.86;68.63
706;BME280;21234;48.690;9.016;2022-10-29T09:24:22;96802.63;;;17.90;67.83
706;BME280;21234;48.690;9.016;2022-10-29T09:26:56;96794.91;;;17.92;66.92
706;BME280;21234;48.690;9.016;2022-10-29T09:29:37;96797.63;;;17.97;67.11
706;BME280;21234;48.690;9.016;2022-10-29T09:32:14;96792.09;;;18.02;66.50
706;BME280;21234;48.690;9.016;2022-10-29T09:34:44;96786.50;;;18.18;63.96
706;BME280;21234;48.690;9.016;2022-10-29T09:37:19;96790.97;;;18.48;60.89
706;BME280;21234;48.690;9.016;2022-10-29T09:39:47;96783.59;;;18.72;61.80
706;BME280;21234;48.690;9.016;2022-10-29T09:42:17;96791.66;;;18.92;57.41
706;BME280;21234;48.690;9.016;2022-10-29T09:44:50;96784.03;;;19.13;57.91
706;BME280;21234;48.690;9.016;2022-10-29T09:47:27;96780.78;;;19.30;57.55
706;BME280;21234;48.690;9.016;2022-10-29T09:50:15;96783.91;;;19.47;57.34
706;BME280;21234;48.690;9.016;2022-10-29T09:52:47;96783.25;;;19.55;59.93
706;BME280;21234;48.690;9.016;2022-10-29T09:55:19;96787.25;;;19.68;56.08
706;BME280;21234;48.690;9.016;2022-10-29T09:57:46;96791.28;;;19.75;57.34
706;BME280;21234;48.690;9.016;2022-10-29T10:00:19;96786.00;;;19.79;57.14
706;BME280;21234;48.690;9.016;2022-10-29T10:02:49;96790.72;;;19.97;53.04
706;BME280;21234;48.690;9.016;2022-10-29T10:05:22;96789.69;;;20.12;53.80
706;BME280;21234;48.690;9.016;2022-10-29T10:08:05;96786.81;;;20.17;52.96
706;BME280;21234;48.690;9.016;2022-10-29T10:10:34;96784.13;;;20.31;52.31
706;BME280;21234;48.690;9.016;2022-10-29T10:13:02;96782.06;;;20.41;53.75
706;BME280;21234;48.690;9.016;2022-10-29T10:15:32;96782.78;;;20.47;53.72
706;BME280;21234;48.690;9.016;2022-10-29T10:18:01;96779.34;;;20.55;54.55
706;BME280;21234;48.690;9.016;2022-10-29T10:20:34;96776.94;;;20.67;52.39
706;BME280;21234;48.690;9.016;2022-10-29T10:23:14;96780.13;;;20.74;52.86
706;BME280;21234;48.690;9.016;2022-10-29T10:25:43;96781.88;;;20.84;53.08
706;BME280;21234;48.690;9.016;2022-10-29T10:28:15;96772.38;;;20.90;53.23
706;BME280;21234;48.690;9.016;2022-10-29T10:30:44;96769.66;;;21.04;51.13
706;BME280;21234;48.690;9.016;2022-10-29T10:33:22;96762.78;;;21.15;53.31
706;BME280;21234;48.690;9.016;2022-10-29T10:35:49;96771.59;;;21.17;52.01
706;BME280;21234;48.690;9.016;2022-10-29T10:38:18;96766.53;;;21.24;52.66
706;BME280;21234;48.690;9.016;2022-10-29T10:40:53;96751.28;;;21.40;49.14
706;BME280;21234;48.690;9.016;2022-10-29T10:43:22;96764.81;;;21.42;49.64
706;BME280;21234;48.690;9.016;2022-10-29T10:45:55;96766.09;;;21.44;48.09
706;BME280;21234;48.690;9.016;2022-10-29T10:48:24;96750.63;;;21.57;49.41
706;BME280;21234;48.690;9.016;2022-10-29T10:53:53;96747.56;;;21.72;49.20
706;BME280;21234;48.690;9.016;2022-10-29T10:56:21;96758.81;;;21.76;49.06
706;BME280;21234;48.690;9.016;2022-10-29T10:58:54;96753.66;;;21.83;47.41
706;BME280;21234;48.690;9.016;2022-10-29T11:01:27;96757.25;;;21.84;48.09
706;BME280;21234;48.690;9.016;2022-10-29T11:04:00;96751.53;;;21.80;47.49
706;BME280;21234;48.690;9.016;2022-10-29T11:06:31;96757.75;;;21.86;46.50
706;BME280;21234;48.690;9.016;2022-10-29T11:09:06;96753.66;;;21.97;47.58
706;BME280;21234;48.690;9.016;2022-10-29T11:11:38;96750.06;;;21.96;46.98
706;BME280;21234;48.690;9.016;2022-10-29T11:14:10;96737.25;;;22.00;47.87
706;BME280;21234;48.690;9.016;2022-10-29T11:16:43;96741.94;;;22.00;48.25
706;BME280;21234;48.690;9.016;2022-10-29T11:19:19;96731.97;;;22.12;45.04
706;BME280;21234;48.690;9.016;2022-10-29T11:21:57;96734.00;;;22.21;45.76
706;BME280;21234;48.690;9.016;2022-10-29T11:24:34;96727.53;;;22.25;47.00
706;BME280;21234;48.690;9.016;2022-10-29T11:27:12;96734.22;;;22.24;46.22
706;BME280;21234;48.690;9.016;2022-10-29T11:29:49;96734.41;;;22.28;46.81
706;BME280;21234;48.690;9.016;2022-10-29T11:32:20;96735.41;;;22.32;46.31
706;BME280;21234;48.690;9.016;2022-10-29T11:34:54;96727.72;;;22.29;46.83
706;BME280;21234;48.690;9.016;2022-10-29T11:37:28;96719.63;;;22.32;46.70
706;BME280;21234;48.690;9.016;2022-10-29T11:40:01;96721.56;;;22.32;47.78
706;BME280;21234;48.690;9.016;2022-10-29T11:42:28;96720.31;;;22.38;46.55
706;BME280;21234;48.690;9.016;2022-10-29T11:44:57;96711.19;;;22.37;48.34
706;BME280;21234;48.690;9.016;2022-10-29T11:47:43;96705.97;;;22.36;47.79
706;BME280;21234;48.690;9.016;2022-10-29T11:50:21;96705.34;;;22.39;47.56
706;BME280;21234;48.690;9.016;2022-10-29T11:52:55;96708.44;;;22.46;46.39
706;BME280;21234;48.690;9.016;2022-10-29T11:55:34;96701.34;;;22.54;45.59
706;BME280;21234;48.690;9.016;2022-10-29T11:58:05;96699.50;;;22.49;45.71
706;BME280;21234;48.690;9.016;2022-10-29T12:00:49;96702.59;;;22.48;46.48
706;BME280;21234;48.690;9.016;2022-10-29T12:03:39;96696.75;;;22.49;46.16
706;BME280;21234;48.690;9.016;2022-10-29T12:06:15;96693.03;;;22.54;46.59
706;BME280;21234;48.690;9.016;2022-10-29T12:08:53;96688.44;;;22.49;47.73
706;BME280;21234;48.690;9.016;2022-10-29T12:11:26;96692.22;;;22.53;46.21
706;BME280;21234;48.690;9.016;2022-10-29T12:14:03;96686.34;;;22.55;47.79
706;BME280;21234;48.690;9.016;2022-10-29T12:16:44;96680.31;;;22.53;48.84
706;BME280;21234;48.690;9.016;2022-10-29T12:19:24;96674.69;;;22.66;45.99
706;BME280;21234;48.690;9.016;2022-10-29T12:21:59;96670.94;;;22.93;44.55
706;BME280;21234;48.690;9.016;2022-10-29T12:24:50;96669.19;;;23.06;45.05
706;BME280;21234;48.690;9.016;2022-10-29T12:27:26;96661.06;;;23.18;43.60
706;BME280;21234;48.690;9.016;2022-10-29T12:30:00;96662.75;;;23.28;42.90
706;BME280;21234;48.690;9.016;2022-10-29T12:32:36;96665.69;;;23.31;43.79
706;BME280;21234;48.690;9.016;2022-10-29T12:35:10;96653.13;;;23.34;43.68
706;BME280;21234;48.690;9.016;2022-10-29T12:37:44;96657.22;;;23.36;43.13
706;BME280;21234;48.690;9.016;2022-10-29T12:40:17;96657.22;;;23.36;45.04
706;BME280;21234;48.690;9.016;2022-10-29T12:42:47;96650.69;;;23.32;42.58
706;BME280;21234;48.690;9.016;2022-10-29T12:45:26;96656.88;;;23.29;43.42
706;BME280;21234;48.690;9.016;2022-10-29T12:48:01;96657.03;;;23.33;43.71
706;BME280;21234;48.690;9.016;2022-10-29T12:50:37;96652.00;;;23.43;44.16
706;BME280;21234;48.690;9.016;2022-10-29T12:53:16;96643.50;;;23.49;42.93
706;BME280;21234;48.690;9.016;2022-10-29T12:55:46;96648.25;;;23.48;42.92
706;BME280;21234;48.690;9.016;2022-10-29T12:58:46;96640.63;;;23.54;42.20
706;BME280;21234;48.690;9.016;2022-10-29T13:01:45;96646.84;;;23.68;40.32
706;BME280;21234;48.690;9.016;2022-10-29T13:04:30;96641.13;;;23.82;40.95
706;BME280;21234;48.690;9.016;2022-10-29T13:07:03;96637.53;;;23.90;40.19
706;BME280;21234;48.690;9.016;2022-10-29T13:09:31;96640.31;;;23.98;39.64
706;BME280;21234;48.690;9.016;2022-10-29T13:12:03;96632.66;;;24.04;40.61
706;BME280;21234;48.690;9.016;2022-10-29T13:14:39;96631.97;;;24.07;39.58
706;BME280;21234;48.690;9.016;2022-10-29T13:17:21;96616.94;;;24.17;39.86
706;BME280;21234;48.690;9.016;2022-10-29T13:19:51;96619.41;;;24.27;39.74
706;BME280;21234;48.690;9.016;2022-10-29T13:28:47;96606.81;;;24.21;40.87
706;BME280;21234;48.690;9.016;2022-10-29T13:34:54;96611.28;;;25.36;40.90
706;BME280;21234;48.690;9.016;2022-10-29T13:41:06;96613.53;;;27.28;36.23
706;BME280;21234;48.690;9.016;2022-10-29T13:43:34;96612.22;;;27.50;36.83
706;BME280;21234;48.690;9.016;2022-10-29T13:46:40;96603.88;;;27.26;36.39
706;BME280;21234;48.690;9.016;2022-10-29T13:49:12;96603.56;;;26.58;37.62
706;BME280;21234;48.690;9.016;2022-10-29T13:51:48;96601.56;;;25.71;38.81
706;BME280;21234;48.690;9.016;2022-10-29T13:54:28;96601.94;;;25.11;40.51
706;BME280;21234;48.690;9.016;2022-10-29T13:56:58;96603.69;;;24.86;41.12
706;BME280;21234;48.690;9.016;2022-10-29T13:59:33;96596.44;;;24.64;41.84
706;BME280;21234;48.690;9.016;2022-10-29T14:04:58;96599.47;;;24.25;42.87